sensor_id;sensor_type;location;lat;lon;timestamp;P1;durP1;ratioP1;P2;durP2;ratioP2
10100;SDS011;5090;51.258;4.436;2022-08-19T00:00:24;32.40;;;23.27;;
10100;SDS011;5090;51.258;4.436;2022-08-19T00:02:52;34.00;;;25.77;;
10100;SDS011;5090;51.258;4.436;2022-08-19T00:05:20;37.03;;;26.53;;
10100;SDS011;5090;51.258;4.436;2022-08-19T00:07:48;38.90;;;29.20;;
10100;SDS011;5090;51.258;4.436;2022-08-19T00:10:20;40.07;;;29.20;;
10100;SDS011;5090;51.258;4.436;2022-08-19T00:12:48;37.43;;;27.83;;
10100;SDS011;5090;51.258;4.436;2022-08-19T00:15:17;41.53;;;29.17;;
10100;SDS011;5090;51.258;4.436;2022-08-19T00:17:44;39.73;;;29.17;;
10100;SDS011;5090;51.258;4.436;2022-08-19T00:20:14;40.07;;;29.10;;
10100;SDS011;5090;51.258;4.436;2022-08-19T00:22:41;40.03;;;28.90;;
10100;SDS011;5090;51.258;4.436;2022-08-19T00:25:09;41.60;;;29.73;;
10100;SDS011;5090;51.258;4.436;2022-08-19T00:27:37;39.87;;;28.00;;
10100;SDS011;5090;51.258;4.436;2022-08-19T00:30:06;37.40;;;28.53;;
10100;SDS011;5090;51.258;4.436;2022-08-19T00:32:34;42.40;;;29.63;;
10100;SDS011;5090;51.258;4.436;2022-08-19T00:35:03;48.30;;;31.63;;
10100;SDS011;5090;51.258;4.436;2022-08-19T00:37:31;51.30;;;32.85;;
10100;SDS011;5090;51.258;4.436;2022-08-19T00:40:00;56.67;;;35.30;;
10100;SDS011;5090;51.258;4.436;2022-08-19T00:42:28;49.97;;;32.87;;
10100;SDS011;5090;51.258;4.436;2022-08-19T00:44:57;58.90;;;34.30;;
10100;SDS011;5090;51.258;4.436;2022-08-19T00:47:25;67.90;;;37.63;;
10100;SDS011;5090;51.258;4.436;2022-08-19T00:49:55;66.23;;;38.80;;
10100;SDS011;5090;51.258;4.436;2022-08-19T00:52:23;65.90;;;38.07;;
10100;SDS011;5090;51.258;4.436;2022-08-19T00:54:50;63.60;;;37.67;;
10100;SDS011;5090;51.258;4.436;2022-08-19T00:57:20;65.77;;;38.20;;
10100;SDS011;5090;51.258;4.436;2022-08-19T00:59:47;58.80;;;35.93;;
10100;SDS011;5090;51.258;4.436;2022-08-19T01:02:15;58.63;;;35.37;;
10100;SDS011;5090;51.258;4.436;2022-08-19T01:04:43;55.13;;;33.70;;
10100;SDS011;5090;51.258;4.436;2022-08-19T01:07:11;62.87;;;35.07;;
10100;SDS011;5090;51.258;4.436;2022-08-19T01:09:39;60.27;;;35.30;;
10100;SDS011;5090;51.258;4.436;2022-08-19T01:12:08;59.70;;;33.57;;
10100;SDS011;5090;51.258;4.436;2022-08-19T01:14:36;56.67;;;34.93;;
10100;SDS011;5090;51.258;4.436;2022-08-19T01:17:04;58.67;;;35.05;;
10100;SDS011;5090;51.258;4.436;2022-08-19T01:19:34;59.90;;;35.43;;
10100;SDS011;5090;51.258;4.436;2022-08-19T01:22:03;59.67;;;36.13;;
10100;SDS011;5090;51.258;4.436;2022-08-19T01:24:30;63.22;;;37.17;;
10100;SDS011;5090;51.258;4.436;2022-08-19T01:26:58;67.55;;;38.30;;
10100;SDS011;5090;51.258;4.436;2022-08-19T01:29:26;56.53;;;34.83;;
10100;SDS011;5090;51.258;4.436;2022-08-19T01:31:55;63.53;;;38.57;;
10100;SDS011;5090;51.258;4.436;2022-08-19T01:34:23;62.17;;;36.90;;
10100;SDS011;5090;51.258;4.436;2022-08-19T01:36:51;58.77;;;36.50;;
10100;SDS011;5090;51.258;4.436;2022-08-19T01:39:20;58.73;;;37.10;;
10100;SDS011;5090;51.258;4.436;2022-08-19T01:41:47;59.87;;;37.73;;
10100;SDS011;5090;51.258;4.436;2022-08-19T01:44:16;62.07;;;36.87;;
10100;SDS011;5090;51.258;4.436;2022-08-19T01:46:44;56.27;;;35.33;;
10100;SDS011;5090;51.258;4.436;2022-08-19T01:49:13;58.07;;;35.50;;
10100;SDS011;5090;51.258;4.436;2022-08-19T01:51:41;56.10;;;34.57;;
10100;SDS011;5090;51.258;4.436;2022-08-19T01:54:10;55.93;;;32.77;;
10100;SDS011;5090;51.258;4.436;2022-08-19T01:56:38;54.93;;;33.33;;
10100;SDS011;5090;51.258;4.436;2022-08-19T01:59:08;54.10;;;32.33;;
10100;SDS011;5090;51.258;4.436;2022-08-19T02:01:34;51.57;;;33.50;;
10100;SDS011;5090;51.258;4.436;2022-08-19T02:04:03;48.83;;;30.67;;
10100;SDS011;5090;51.258;4.436;2022-08-19T02:06:31;47.23;;;31.40;;
10100;SDS011;5090;51.258;4.436;2022-08-19T02:08:59;45.60;;;29.90;;
10100;SDS011;5090;51.258;4.436;2022-08-19T02:11:29;48.23;;;31.03;;
10100;SDS011;5090;51.258;4.436;2022-08-19T02:13:55;47.43;;;29.40;;
10100;SDS011;5090;51.258;4.436;2022-08-19T02:16:24;45.57;;;28.63;;
10100;SDS011;5090;51.258;4.436;2022-08-19T02:18:52;48.00;;;29.63;;
10100;SDS011;5090;51.258;4.436;2022-08-19T02:21:21;43.70;;;29.67;;
10100;SDS011;5090;51.258;4.436;2022-08-19T02:23:49;41.73;;;28.37;;
10100;SDS011;5090;51.258;4.436;2022-08-19T02:26:17;42.70;;;27.40;;
10100;SDS011;5090;51.258;4.436;2022-08-19T02:28:45;48.27;;;28.23;;
10100;SDS011;5090;51.258;4.436;2022-08-19T02:31:14;45.27;;;27.93;;
10100;SDS011;5090;51.258;4.436;2022-08-19T02:33:41;48.90;;;28.20;;
10100;SDS011;5090;51.258;4.436;2022-08-19T02:36:10;42.83;;;26.37;;
10100;SDS011;5090;51.258;4.436;2022-08-19T02:38:38;43.23;;;25.90;;
10100;SDS011;5090;51.258;4.436;2022-08-19T02:41:10;46.87;;;27.63;;
10100;SDS011;5090;51.258;4.436;2022-08-19T02:43:35;42.50;;;25.30;;
10100;SDS011;5090;51.258;4.436;2022-08-19T02:48:38;43.23;;;26.97;;
10100;SDS011;5090;51.258;4.436;2022-08-19T02:51:06;44.33;;;26.37;;
10100;SDS011;5090;51.258;4.436;2022-08-19T02:53:34;44.30;;;27.47;;
10100;SDS011;5090;51.258;4.436;2022-08-19T02:56:05;45.33;;;26.87;;
10100;SDS011;5090;51.258;4.436;2022-08-19T02:58:31;48.00;;;26.47;;
10100;SDS011;5090;51.258;4.436;2022-08-19T03:00:59;41.93;;;26.67;;
10100;SDS011;5090;51.258;4.436;2022-08-19T03:03:27;45.23;;;25.67;;
10100;SDS011;5090;51.258;4.436;2022-08-19T03:06:03;41.57;;;25.70;;
10100;SDS011;5090;51.258;4.436;2022-08-19T03:08:30;40.70;;;25.83;;
10100;SDS011;5090;51.258;4.436;2022-08-19T03:10:58;46.03;;;26.10;;
10100;SDS011;5090;51.258;4.436;2022-08-19T03:13:26;42.83;;;26.13;;
10100;SDS011;5090;51.258;4.436;2022-08-19T03:15:55;40.33;;;25.43;;
10100;SDS011;5090;51.258;4.436;2022-08-19T03:18:23;43.47;;;27.07;;
10100;SDS011;5090;51.258;4.436;2022-08-19T03:20:51;46.43;;;28.77;;
10100;SDS011;5090;51.258;4.436;2022-08-19T03:23:20;49.30;;;27.60;;
10100;SDS011;5090;51.258;4.436;2022-08-19T03:25:49;49.07;;;29.40;;
10100;SDS011;5090;51.258;4.436;2022-08-19T03:28:17;47.23;;;27.90;;
10100;SDS011;5090;51.258;4.436;2022-08-19T03:31:01;45.13;;;26.87;;
10100;SDS011;5090;51.258;4.436;2022-08-19T03:33:28;45.70;;;25.80;;
10100;SDS011;5090;51.258;4.436;2022-08-19T03:36:03;42.40;;;25.63;;
10100;SDS011;5090;51.258;4.436;2022-08-19T03:38:31;40.77;;;25.53;;
10100;SDS011;5090;51.258;4.436;2022-08-19T03:41:01;42.77;;;26.67;;
10100;SDS011;5090;51.258;4.436;2022-08-19T03:43:27;43.33;;;25.90;;
10100;SDS011;5090;51.258;4.436;2022-08-19T03:46:01;46.20;;;26.47;;
10100;SDS011;5090;51.258;4.436;2022-08-19T03:48:28;47.00;;;25.47;;
10100;SDS011;5090;51.258;4.436;2022-08-19T03:50:57;44.77;;;26.57;;
10100;SDS011;5090;51.258;4.436;2022-08-19T03:53:26;47.27;;;25.97;;
10100;SDS011;5090;51.258;4.436;2022-08-19T03:55:53;46.07;;;26.87;;
10100;SDS011;5090;51.258;4.436;2022-08-19T03:58:22;50.03;;;27.13;;
10100;SDS011;5090;51.258;4.436;2022-08-19T04:00:49;47.23;;;25.43;;
10100;SDS011;5090;51.258;4.436;2022-08-19T04:03:18;41.47;;;24.63;;
10100;SDS011;5090;51.258;4.436;2022-08-19T04:05:46;41.47;;;25.83;;
10100;SDS011;5090;51.258;4.436;2022-08-19T04:08:14;42.43;;;24.40;;
10100;SDS011;5090;51.258;4.436;2022-08-19T04:10:43;43.83;;;25.50;;
10100;SDS011;5090;51.258;4.436;2022-08-19T04:13:11;48.17;;;25.40;;
10100;SDS011;5090;51.258;4.436;2022-08-19T04:15:40;41.83;;;23.73;;
10100;SDS011;5090;51.258;4.436;2022-08-19T04:18:09;42.20;;;23.63;;
10100;SDS011;5090;51.258;4.436;2022-08-19T04:20:41;47.20;;;24.47;;
10100;SDS011;5090;51.258;4.436;2022-08-19T04:23:08;40.47;;;23.63;;
10100;SDS011;5090;51.258;4.436;2022-08-19T04:25:38;37.93;;;21.93;;
10100;SDS011;5090;51.258;4.436;2022-08-19T04:28:05;36.53;;;21.80;;
10100;SDS011;5090;51.258;4.436;2022-08-19T04:30:40;42.73;;;22.83;;
10100;SDS011;5090;51.258;4.436;2022-08-19T04:33:08;39.07;;;22.77;;
10100;SDS011;5090;51.258;4.436;2022-08-19T04:35:37;45.87;;;23.57;;
10100;SDS011;5090;51.258;4.436;2022-08-19T04:38:04;40.07;;;23.63;;
10100;SDS011;5090;51.258;4.436;2022-08-19T04:40:33;42.40;;;23.23;;
10100;SDS011;5090;51.258;4.436;2022-08-19T04:43:07;46.53;;;22.20;;
10100;SDS011;5090;51.258;4.436;2022-08-19T04:45:35;41.07;;;21.57;;
10100;SDS011;5090;51.258;4.436;2022-08-19T04:48:03;40.90;;;21.93;;
10100;SDS011;5090;51.258;4.436;2022-08-19T04:50:31;37.77;;;19.83;;
10100;SDS011;5090;51.258;4.436;2022-08-19T04:53:00;38.47;;;21.30;;
10100;SDS011;5090;51.258;4.436;2022-08-19T04:55:28;46.77;;;20.90;;
10100;SDS011;5090;51.258;4.436;2022-08-19T04:57:56;36.53;;;21.63;;
10100;SDS011;5090;51.258;4.436;2022-08-19T05:00:24;37.13;;;19.57;;
10100;SDS011;5090;51.258;4.436;2022-08-19T05:02:52;33.13;;;18.87;;
10100;SDS011;5090;51.258;4.436;2022-08-19T05:05:21;44.20;;;20.80;;
10100;SDS011;5090;51.258;4.436;2022-08-19T05:07:49;36.33;;;20.50;;
10100;SDS011;5090;51.258;4.436;2022-08-19T05:10:17;36.30;;;19.10;;
10100;SDS011;5090;51.258;4.436;2022-08-19T05:12:45;39.60;;;19.37;;
10100;SDS011;5090;51.258;4.436;2022-08-19T05:15:13;36.07;;;19.40;;
10100;SDS011;5090;51.258;4.436;2022-08-19T05:17:42;32.20;;;18.73;;
10100;SDS011;5090;51.258;4.436;2022-08-19T05:20:10;33.70;;;18.93;;
10100;SDS011;5090;51.258;4.436;2022-08-19T05:22:45;38.63;;;18.17;;
10100;SDS011;5090;51.258;4.436;2022-08-19T05:25:15;36.83;;;17.93;;
10100;SDS011;5090;51.258;4.436;2022-08-19T05:27:41;29.53;;;15.57;;
10100;SDS011;5090;51.258;4.436;2022-08-19T05:30:09;26.43;;;15.17;;
10100;SDS011;5090;51.258;4.436;2022-08-19T05:32:38;20.93;;;13.60;;
10100;SDS011;5090;51.258;4.436;2022-08-19T05:35:06;23.90;;;14.07;;
10100;SDS011;5090;51.258;4.436;2022-08-19T05:37:34;24.30;;;13.95;;
10100;SDS011;5090;51.258;4.436;2022-08-19T05:40:03;22.65;;;13.70;;
10100;SDS011;5090;51.258;4.436;2022-08-19T05:42:31;21.20;;;13.32;;
10100;SDS011;5090;51.258;4.436;2022-08-19T05:44:59;25.80;;;13.07;;
10100;SDS011;5090;51.258;4.436;2022-08-19T05:47:27;23.92;;;13.90;;
10100;SDS011;5090;51.258;4.436;2022-08-19T05:49:55;21.55;;;12.18;;
10100;SDS011;5090;51.258;4.436;2022-08-19T05:52:24;22.85;;;11.48;;
10100;SDS011;5090;51.258;4.436;2022-08-19T05:54:52;24.37;;;11.80;;
10100;SDS011;5090;51.258;4.436;2022-08-19T05:57:20;23.08;;;11.40;;
10100;SDS011;5090;51.258;4.436;2022-08-19T05:59:48;24.87;;;12.20;;
10100;SDS011;5090;51.258;4.436;2022-08-19T06:02:17;28.62;;;11.35;;
10100;SDS011;5090;51.258;4.436;2022-08-19T06:04:45;20.20;;;10.98;;
10100;SDS011;5090;51.258;4.436;2022-08-19T06:07:13;24.27;;;10.88;;
10100;SDS011;5090;51.258;4.436;2022-08-19T06:09:41;24.12;;;11.05;;
10100;SDS011;5090;51.258;4.436;2022-08-19T06:12:09;27.23;;;10.23;;
10100;SDS011;5090;51.258;4.436;2022-08-19T06:14:38;20.50;;;10.60;;
10100;SDS011;5090;51.258;4.436;2022-08-19T06:17:06;17.55;;;10.38;;
10100;SDS011;5090;51.258;4.436;2022-08-19T06:19:34;21.12;;;11.38;;
10100;SDS011;5090;51.258;4.436;2022-08-19T06:22:02;17.92;;;10.82;;
10100;SDS011;5090;51.258;4.436;2022-08-19T06:24:30;17.40;;;10.38;;
10100;SDS011;5090;51.258;4.436;2022-08-19T06:26:59;21.77;;;10.52;;
10100;SDS011;5090;51.258;4.436;2022-08-19T06:29:27;20.58;;;10.82;;
10100;SDS011;5090;51.258;4.436;2022-08-19T06:31:56;23.35;;;11.45;;
10100;SDS011;5090;51.258;4.436;2022-08-19T06:34:24;19.45;;;10.57;;
10100;SDS011;5090;51.258;4.436;2022-08-19T06:36:52;20.12;;;10.85;;
10100;SDS011;5090;51.258;4.436;2022-08-19T06:39:22;24.75;;;11.12;;
10100;SDS011;5090;51.258;4.436;2022-08-19T06:41:49;23.05;;;11.73;;
10100;SDS011;5090;51.258;4.436;2022-08-19T06:44:18;25.10;;;11.32;;
10100;SDS011;5090;51.258;4.436;2022-08-19T06:46:45;29.87;;;11.93;;
10100;SDS011;5090;51.258;4.436;2022-08-19T06:49:14;24.52;;;11.70;;
10100;SDS011;5090;51.258;4.436;2022-08-19T06:51:42;23.02;;;12.10;;
10100;SDS011;5090;51.258;4.436;2022-08-19T06:54:10;19.58;;;12.37;;
10100;SDS011;5090;51.258;4.436;2022-08-19T06:56:38;28.80;;;13.40;;
10100;SDS011;5090;51.258;4.436;2022-08-19T06:59:08;27.50;;;11.75;;
10100;SDS011;5090;51.258;4.436;2022-08-19T07:01:36;27.90;;;13.00;;
10100;SDS011;5090;51.258;4.436;2022-08-19T07:04:04;24.23;;;12.93;;
10100;SDS011;5090;51.258;4.436;2022-08-19T07:06:31;27.23;;;12.82;;
10100;SDS011;5090;51.258;4.436;2022-08-19T07:09:00;22.00;;;13.57;;
10100;SDS011;5090;51.258;4.436;2022-08-19T07:11:28;25.23;;;13.48;;
10100;SDS011;5090;51.258;4.436;2022-08-19T07:13:56;25.25;;;12.68;;
10100;SDS011;5090;51.258;4.436;2022-08-19T07:16:26;28.45;;;12.88;;
10100;SDS011;5090;51.258;4.436;2022-08-19T07:18:54;28.08;;;13.02;;
10100;SDS011;5090;51.258;4.436;2022-08-19T07:21:23;23.00;;;12.20;;
10100;SDS011;5090;51.258;4.436;2022-08-19T07:23:50;22.20;;;11.43;;
10100;SDS011;5090;51.258;4.436;2022-08-19T07:26:20;22.33;;;11.88;;
10100;SDS011;5090;51.258;4.436;2022-08-19T07:28:47;24.40;;;12.52;;
10100;SDS011;5090;51.258;4.436;2022-08-19T07:31:17;21.33;;;12.98;;
10100;SDS011;5090;51.258;4.436;2022-08-19T07:33:45;23.27;;;12.85;;
10100;SDS011;5090;51.258;4.436;2022-08-19T07:36:13;23.00;;;13.07;;
10100;SDS011;5090;51.258;4.436;2022-08-19T07:38:41;20.52;;;14.32;;
10100;SDS011;5090;51.258;4.436;2022-08-19T07:41:10;22.00;;;13.43;;
10100;SDS011;5090;51.258;4.436;2022-08-19T07:43:37;19.05;;;12.35;;
10100;SDS011;5090;51.258;4.436;2022-08-19T07:46:05;22.33;;;13.18;;
10100;SDS011;5090;51.258;4.436;2022-08-19T07:48:33;23.40;;;13.05;;
10100;SDS011;5090;51.258;4.436;2022-08-19T07:51:03;24.17;;;12.43;;
10100;SDS011;5090;51.258;4.436;2022-08-19T07:53:30;20.67;;;12.63;;
10100;SDS011;5090;51.258;4.436;2022-08-19T07:55:58;20.42;;;12.00;;
10100;SDS011;5090;51.258;4.436;2022-08-19T07:58:26;25.45;;;13.13;;
10100;SDS011;5090;51.258;4.436;2022-08-19T08:00:55;22.83;;;13.85;;
10100;SDS011;5090;51.258;4.436;2022-08-19T08:03:23;25.95;;;13.73;;
10100;SDS011;5090;51.258;4.436;2022-08-19T08:05:56;25.17;;;14.35;;
10100;SDS011;5090;51.258;4.436;2022-08-19T08:08:30;25.00;;;15.15;;
10100;SDS011;5090;51.258;4.436;2022-08-19T08:11:11;21.90;;;14.23;;
10100;SDS011;5090;51.258;4.436;2022-08-19T08:13:39;19.50;;;13.43;;
10100;SDS011;5090;51.258;4.436;2022-08-19T08:16:07;23.02;;;13.52;;
10100;SDS011;5090;51.258;4.436;2022-08-19T08:18:35;20.35;;;13.65;;
10100;SDS011;5090;51.258;4.436;2022-08-19T08:21:04;24.37;;;13.30;;
10100;SDS011;5090;51.258;4.436;2022-08-19T08:23:32;22.62;;;12.98;;
10100;SDS011;5090;51.258;4.436;2022-08-19T08:26:01;19.80;;;12.20;;
10100;SDS011;5090;51.258;4.436;2022-08-19T08:28:29;21.58;;;12.65;;
10100;SDS011;5090;51.258;4.436;2022-08-19T08:30:57;21.35;;;13.02;;
10100;SDS011;5090;51.258;4.436;2022-08-19T08:33:26;20.10;;;12.65;;
10100;SDS011;5090;51.258;4.436;2022-08-19T08:35:53;18.52;;;12.05;;
10100;SDS011;5090;51.258;4.436;2022-08-19T08:38:22;16.87;;;11.73;;
10100;SDS011;5090;51.258;4.436;2022-08-19T08:40:52;18.92;;;12.30;;
10100;SDS011;5090;51.258;4.436;2022-08-19T08:43:37;20.62;;;12.77;;
10100;SDS011;5090;51.258;4.436;2022-08-19T08:46:07;24.95;;;13.07;;
10100;SDS011;5090;51.258;4.436;2022-08-19T08:48:37;22.85;;;13.45;;
10100;SDS011;5090;51.258;4.436;2022-08-19T08:51:05;20.83;;;13.45;;
10100;SDS011;5090;51.258;4.436;2022-08-19T08:53:32;25.88;;;14.35;;
10100;SDS011;5090;51.258;4.436;2022-08-19T08:56:00;20.15;;;12.95;;
10100;SDS011;5090;51.258;4.436;2022-08-19T08:58:31;19.77;;;11.88;;
10100;SDS011;5090;51.258;4.436;2022-08-19T09:00:57;18.83;;;11.80;;
10100;SDS011;5090;51.258;4.436;2022-08-19T09:03:26;18.75;;;12.32;;
10100;SDS011;5090;51.258;4.436;2022-08-19T09:05:56;19.80;;;11.77;;
10100;SDS011;5090;51.258;4.436;2022-08-19T09:08:30;22.20;;;14.82;;
10100;SDS011;5090;51.258;4.436;2022-08-19T09:10:56;30.58;;;14.93;;
10100;SDS011;5090;51.258;4.436;2022-08-19T09:13:28;24.58;;;14.45;;
10100;SDS011;5090;51.258;4.436;2022-08-19T09:15:54;20.90;;;13.40;;
10100;SDS011;5090;51.258;4.436;2022-08-19T09:18:21;22.55;;;12.48;;
10100;SDS011;5090;51.258;4.436;2022-08-19T09:20:50;22.05;;;13.05;;
10100;SDS011;5090;51.258;4.436;2022-08-19T09:23:18;20.70;;;12.43;;
10100;SDS011;5090;51.258;4.436;2022-08-19T09:25:46;17.67;;;11.25;;
10100;SDS011;5090;51.258;4.436;2022-08-19T09:28:15;20.33;;;12.57;;
10100;SDS011;5090;51.258;4.436;2022-08-19T09:30:43;17.73;;;11.73;;
10100;SDS011;5090;51.258;4.436;2022-08-19T09:33:11;23.25;;;13.15;;
10100;SDS011;5090;51.258;4.436;2022-08-19T09:35:39;20.15;;;13.90;;
10100;SDS011;5090;51.258;4.436;2022-08-19T09:38:07;22.55;;;14.23;;
10100;SDS011;5090;51.258;4.436;2022-08-19T09:40:36;25.55;;;14.82;;
10100;SDS011;5090;51.258;4.436;2022-08-19T09:43:04;24.85;;;16.40;;
10100;SDS011;5090;51.258;4.436;2022-08-19T09:45:32;26.92;;;18.25;;
10100;SDS011;5090;51.258;4.436;2022-08-19T09:48:00;35.22;;;21.62;;
10100;SDS011;5090;51.258;4.436;2022-08-19T09:50:28;33.67;;;20.50;;
10100;SDS011;5090;51.258;4.436;2022-08-19T09:52:57;32.75;;;23.48;;
10100;SDS011;5090;51.258;4.436;2022-08-19T09:55:25;35.15;;;24.15;;
10100;SDS011;5090;51.258;4.436;2022-08-19T09:57:53;32.67;;;22.00;;
10100;SDS011;5090;51.258;4.436;2022-08-19T10:00:22;28.45;;;18.52;;
10100;SDS011;5090;51.258;4.436;2022-08-19T10:02:50;30.30;;;17.80;;
10100;SDS011;5090;51.258;4.436;2022-08-19T10:05:18;30.05;;;15.70;;
10100;SDS011;5090;51.258;4.436;2022-08-19T10:07:52;27.33;;;16.42;;
10100;SDS011;5090;51.258;4.436;2022-08-19T10:10:20;29.40;;;16.92;;
10100;SDS011;5090;51.258;4.436;2022-08-19T10:12:49;26.77;;;17.58;;
10100;SDS011;5090;51.258;4.436;2022-08-19T10:15:17;25.98;;;16.50;;
10100;SDS011;5090;51.258;4.436;2022-08-19T10:17:46;29.33;;;16.02;;
10100;SDS011;5090;51.258;4.436;2022-08-19T10:20:14;23.42;;;14.00;;
10100;SDS011;5090;51.258;4.436;2022-08-19T10:22:42;18.65;;;12.60;;
10100;SDS011;5090;51.258;4.436;2022-08-19T10:25:10;22.92;;;13.93;;
10100;SDS011;5090;51.258;4.436;2022-08-19T10:27:39;25.33;;;13.32;;
10100;SDS011;5090;51.258;4.436;2022-08-19T10:30:07;19.95;;;13.10;;
10100;SDS011;5090;51.258;4.436;2022-08-19T10:32:36;21.95;;;12.37;;
10100;SDS011;5090;51.258;4.436;2022-08-19T10:35:04;20.15;;;12.45;;
10100;SDS011;5090;51.258;4.436;2022-08-19T10:37:32;20.90;;;12.48;;
10100;SDS011;5090;51.258;4.436;2022-08-19T10:40:01;17.15;;;11.38;;
10100;SDS011;5090;51.258;4.436;2022-08-19T10:42:29;20.37;;;11.23;;
10100;SDS011;5090;51.258;4.436;2022-08-19T10:44:57;22.10;;;12.68;;
10100;SDS011;5090;51.258;4.436;2022-08-19T10:47:26;20.92;;;13.18;;
10100;SDS011;5090;51.258;4.436;2022-08-19T10:49:54;18.85;;;12.35;;
10100;SDS011;5090;51.258;4.436;2022-08-19T10:52:28;18.27;;;11.23;;
10100;SDS011;5090;51.258;4.436;2022-08-19T10:55:01;19.30;;;11.85;;
10100;SDS011;5090;51.258;4.436;2022-08-19T10:57:35;20.23;;;11.38;;
10100;SDS011;5090;51.258;4.436;2022-08-19T11:00:03;16.27;;;11.90;;
10100;SDS011;5090;51.258;4.436;2022-08-19T11:02:32;19.17;;;12.70;;
10100;SDS011;5090;51.258;4.436;2022-08-19T11:05:00;17.92;;;11.57;;
10100;SDS011;5090;51.258;4.436;2022-08-19T11:07:29;19.40;;;11.88;;
10100;SDS011;5090;51.258;4.436;2022-08-19T11:09:57;21.12;;;11.30;;
10100;SDS011;5090;51.258;4.436;2022-08-19T11:12:25;24.40;;;11.50;;
10100;SDS011;5090;51.258;4.436;2022-08-19T11:14:53;18.87;;;11.60;;
10100;SDS011;5090;51.258;4.436;2022-08-19T11:17:22;20.85;;;11.93;;
10100;SDS011;5090;51.258;4.436;2022-08-19T11:19:50;23.95;;;11.82;;
10100;SDS011;5090;51.258;4.436;2022-08-19T11:22:18;18.83;;;11.30;;
10100;SDS011;5090;51.258;4.436;2022-08-19T11:24:46;20.75;;;11.40;;
10100;SDS011;5090;51.258;4.436;2022-08-19T11:27:15;18.80;;;11.25;;
10100;SDS011;5090;51.258;4.436;2022-08-19T11:29:43;19.23;;;11.25;;
10100;SDS011;5090;51.258;4.436;2022-08-19T11:32:11;18.62;;;10.30;;
10100;SDS011;5090;51.258;4.436;2022-08-19T11:34:40;18.80;;;10.60;;
10100;SDS011;5090;51.258;4.436;2022-08-19T11:37:08;16.20;;;10.45;;
10100;SDS011;5090;51.258;4.436;2022-08-19T11:39:36;21.75;;;11.12;;
10100;SDS011;5090;51.258;4.436;2022-08-19T11:42:05;16.35;;;11.02;;
10100;SDS011;5090;51.258;4.436;2022-08-19T11:44:33;15.90;;;10.35;;
10100;SDS011;5090;51.258;4.436;2022-08-19T11:47:01;14.27;;;9.57;;
10100;SDS011;5090;51.258;4.436;2022-08-19T11:49:30;15.35;;;10.10;;
10100;SDS011;5090;51.258;4.436;2022-08-19T11:51:59;15.07;;;8.82;;
10100;SDS011;5090;51.258;4.436;2022-08-19T11:54:27;10.95;;;8.10;;
10100;SDS011;5090;51.258;4.436;2022-08-19T11:56:55;13.85;;;8.57;;
10100;SDS011;5090;51.258;4.436;2022-08-19T11:59:23;11.30;;;8.15;;
10100;SDS011;5090;51.258;4.436;2022-08-19T12:01:52;12.82;;;8.13;;
10100;SDS011;5090;51.258;4.436;2022-08-19T12:04:20;9.98;;;7.18;;
10100;SDS011;5090;51.258;4.436;2022-08-19T12:06:48;11.50;;;7.22;;
10100;SDS011;5090;51.258;4.436;2022-08-19T12:09:16;10.02;;;6.60;;
10100;SDS011;5090;51.258;4.436;2022-08-19T12:11:44;11.50;;;7.35;;
10100;SDS011;5090;51.258;4.436;2022-08-19T12:14:13;10.18;;;7.47;;
10100;SDS011;5090;51.258;4.436;2022-08-19T12:16:43;9.90;;;6.47;;
10100;SDS011;5090;51.258;4.436;2022-08-19T12:19:09;10.73;;;6.75;;
10100;SDS011;5090;51.258;4.436;2022-08-19T12:21:38;7.28;;;6.10;;
10100;SDS011;5090;51.258;4.436;2022-08-19T12:24:06;9.43;;;5.53;;
10100;SDS011;5090;51.258;4.436;2022-08-19T12:26:35;6.03;;;4.35;;
10100;SDS011;5090;51.258;4.436;2022-08-19T12:29:03;6.78;;;3.87;;
10100;SDS011;5090;51.258;4.436;2022-08-19T12:31:31;6.37;;;3.97;;
10100;SDS011;5090;51.258;4.436;2022-08-19T12:33:59;6.70;;;3.78;;
10100;SDS011;5090;51.258;4.436;2022-08-19T12:36:27;6.37;;;3.40;;
10100;SDS011;5090;51.258;4.436;2022-08-19T12:38:57;6.32;;;3.83;;
10100;SDS011;5090;51.258;4.436;2022-08-19T12:41:24;6.43;;;3.62;;
10100;SDS011;5090;51.258;4.436;2022-08-19T12:43:52;6.10;;;3.75;;
10100;SDS011;5090;51.258;4.436;2022-08-19T12:46:20;5.72;;;3.62;;
10100;SDS011;5090;51.258;4.436;2022-08-19T12:48:49;5.20;;;3.75;;
10100;SDS011;5090;51.258;4.436;2022-08-19T12:51:17;5.30;;;3.97;;
10100;SDS011;5090;51.258;4.436;2022-08-19T12:53:45;8.52;;;3.80;;
10100;SDS011;5090;51.258;4.436;2022-08-19T12:56:13;7.12;;;3.55;;
10100;SDS011;5090;51.258;4.436;2022-08-19T12:58:42;4.65;;;3.37;;
10100;SDS011;5090;51.258;4.436;2022-08-19T13:01:14;7.62;;;3.50;;
10100;SDS011;5090;51.258;4.436;2022-08-19T13:03:42;4.50;;;3.30;;
10100;SDS011;5090;51.258;4.436;2022-08-19T13:06:10;4.85;;;3.12;;
10100;SDS011;5090;51.258;4.436;2022-08-19T13:08:38;5.53;;;2.90;;
10100;SDS011;5090;51.258;4.436;2022-08-19T13:11:12;5.68;;;3.28;;
10100;SDS011;5090;51.258;4.436;2022-08-19T13:13:40;4.57;;;3.10;;
10100;SDS011;5090;51.258;4.436;2022-08-19T13:16:08;7.30;;;3.10;;
10100;SDS011;5090;51.258;4.436;2022-08-19T13:18:36;4.78;;;2.80;;
10100;SDS011;5090;51.258;4.436;2022-08-19T13:21:05;7.43;;;3.00;;
10100;SDS011;5090;51.258;4.436;2022-08-19T13:23:33;5.95;;;3.37;;
10100;SDS011;5090;51.258;4.436;2022-08-19T13:26:02;4.35;;;2.62;;
10100;SDS011;5090;51.258;4.436;2022-08-19T13:28:29;5.55;;;2.90;;
10100;SDS011;5090;51.258;4.436;2022-08-19T13:30:58;3.40;;;2.03;;
10100;SDS011;5090;51.258;4.436;2022-08-19T13:33:32;2.70;;;1.80;;
10100;SDS011;5090;51.258;4.436;2022-08-19T13:36:00;4.68;;;2.62;;
10100;SDS011;5090;51.258;4.436;2022-08-19T13:38:28;7.22;;;2.60;;
10100;SDS011;5090;51.258;4.436;2022-08-19T13:40:57;3.37;;;2.03;;
10100;SDS011;5090;51.258;4.436;2022-08-19T13:43:25;2.97;;;2.05;;
10100;SDS011;5090;51.258;4.436;2022-08-19T13:45:53;4.50;;;1.90;;
10100;SDS011;5090;51.258;4.436;2022-08-19T13:48:22;3.90;;;2.03;;
10100;SDS011;5090;51.258;4.436;2022-08-19T13:50:49;7.28;;;2.15;;
10100;SDS011;5090;51.258;4.436;2022-08-19T13:53:18;6.37;;;2.40;;
10100;SDS011;5090;51.258;4.436;2022-08-19T13:55:46;4.12;;;2.00;;
10100;SDS011;5090;51.258;4.436;2022-08-19T13:58:15;2.78;;;1.48;;
10100;SDS011;5090;51.258;4.436;2022-08-19T14:00:44;5.03;;;2.15;;
10100;SDS011;5090;51.258;4.436;2022-08-19T14:03:12;3.42;;;2.08;;
10100;SDS011;5090;51.258;4.436;2022-08-19T14:05:41;4.15;;;1.73;;
10100;SDS011;5090;51.258;4.436;2022-08-19T14:08:09;3.37;;;1.70;;
10100;SDS011;5090;51.258;4.436;2022-08-19T14:10:37;3.70;;;2.10;;
10100;SDS011;5090;51.258;4.436;2022-08-19T14:13:08;3.45;;;2.00;;
10100;SDS011;5090;51.258;4.436;2022-08-19T14:15:37;3.67;;;2.03;;
10100;SDS011;5090;51.258;4.436;2022-08-19T14:18:05;6.37;;;2.12;;
10100;SDS011;5090;51.258;4.436;2022-08-19T14:20:34;4.22;;;1.70;;
10100;SDS011;5090;51.258;4.436;2022-08-19T14:23:02;3.00;;;1.87;;
10100;SDS011;5090;51.258;4.436;2022-08-19T14:25:31;4.68;;;2.10;;
10100;SDS011;5090;51.258;4.436;2022-08-19T14:27:59;2.35;;;1.80;;
10100;SDS011;5090;51.258;4.436;2022-08-19T14:30:31;3.72;;;1.67;;
10100;SDS011;5090;51.258;4.436;2022-08-19T14:32:59;3.30;;;2.15;;
10100;SDS011;5090;51.258;4.436;2022-08-19T14:35:27;2.65;;;1.73;;
10100;SDS011;5090;51.258;4.436;2022-08-19T14:37:55;2.00;;;1.90;;
10100;SDS011;5090;51.258;4.436;2022-08-19T14:40:25;6.22;;;2.55;;
10100;SDS011;5090;51.258;4.436;2022-08-19T14:42:53;8.48;;;4.53;;
10100;SDS011;5090;51.258;4.436;2022-08-19T14:45:21;3.10;;;1.30;;
10100;SDS011;5090;51.258;4.436;2022-08-19T14:47:50;3.90;;;1.45;;
10100;SDS011;5090;51.258;4.436;2022-08-19T14:50:18;12.30;;;2.45;;